createdAt,value
2022-10-18T00:00:44.171Z,14.44
2022-10-18T00:03:10.590Z,14.44
2022-10-18T00:05:36.965Z,14.46
2022-10-18T00:08:03.478Z,14.42
2022-10-18T00:10:29.923Z,14.41
2022-10-18T00:12:56.294Z,14.41
2022-10-18T00:15:22.653Z,14.42
2022-10-18T00:17:49.082Z,14.37
2022-10-18T00:20:15.537Z,14.37
2022-10-18T00:22:41.992Z,14.37
2022-10-18T00:25:09.174Z,14.39
2022-10-18T00:27:36.183Z,14.38
2022-10-18T00:30:03.665Z,14.36
2022-10-18T00:32:30.173Z,14.36
2022-10-18T00:34:56.892Z,14.32
2022-10-18T00:37:23.192Z,14.29
2022-10-18T00:39:50.054Z,14.27
2022-10-18T00:42:18.371Z,14.26
2022-10-18T00:44:44.789Z,14.25
2022-10-18T00:47:14.421Z,14.25
2022-10-18T00:49:42.466Z,14.22
2022-10-18T00:52:16.820Z,14.26
2022-10-18T00:54:45.035Z,14.22
2022-10-18T00:57:12.666Z,14.20
2022-10-18T00:59:39.929Z,14.19
2022-10-18T01:02:06.829Z,14.17
2022-10-18T01:04:33.686Z,14.15
2022-10-18T01:07:21.553Z,14.19
2022-10-18T01:10:00.255Z,14.18
2022-10-18T01:12:44.678Z,14.16
2022-10-18T01:15:16.149Z,14.10
2022-10-18T01:18:19.993Z,14.10
2022-10-18T01:21:09.017Z,14.07
2022-10-18T01:23:57.464Z,14.08
2022-10-18T01:27:01.181Z,14.04
2022-10-18T01:29:39.800Z,13.99
2022-10-18T01:32:27.630Z,14.03
2022-10-18T01:35:03.380Z,14.01
2022-10-18T01:37:31.694Z,13.99
2022-10-18T01:40:00.638Z,13.99
2022-10-18T01:42:27.796Z,13.98
2022-10-18T01:44:54.888Z,13.98
2022-10-18T01:47:22.002Z,13.96
2022-10-18T01:49:48.587Z,13.94
2022-10-18T01:52:16.621Z,13.91
2022-10-18T01:54:48.966Z,13.92
2022-10-18T01:57:28.939Z,13.92
2022-10-18T02:00:00.707Z,13.86
2022-10-18T02:02:40.050Z,13.89
2022-10-18T02:05:29.134Z,13.87
2022-10-18T02:08:23.386Z,13.85
2022-10-18T02:10:55.794Z,13.82
2022-10-18T02:13:25.543Z,13.81
2022-10-18T02:15:57.488Z,13.80
2022-10-18T02:18:33.078Z,13.82
2022-10-18T02:21:01.756Z,13.80
2022-10-18T02:23:28.285Z,13.79
2022-10-18T02:25:55.143Z,13.76
2022-10-18T02:28:22.125Z,13.72
2022-10-18T02:31:00.064Z,13.69
2022-10-18T02:33:43.401Z,13.71
2022-10-18T02:36:15.586Z,13.67
2022-10-18T02:38:44.781Z,13.66
2022-10-18T02:41:11.653Z,13.66
2022-10-18T02:43:38.144Z,13.65
2022-10-18T02:46:04.579Z,13.58
2022-10-18T02:48:30.969Z,13.56
2022-10-18T02:50:57.377Z,13.57
2022-10-18T02:53:23.769Z,13.56
2022-10-18T02:55:50.099Z,13.54
2022-10-18T02:58:16.456Z,13.53
2022-10-18T03:00:42.833Z,13.48
2022-10-18T03:03:09.205Z,13.46
2022-10-18T03:05:35.591Z,13.47
2022-10-18T03:08:02.283Z,13.43
2022-10-18T03:10:28.618Z,13.40
2022-10-18T03:12:55.079Z,13.38
2022-10-18T03:15:21.468Z,13.37
2022-10-18T03:17:47.797Z,13.40
2022-10-18T03:20:14.254Z,13.37
2022-10-18T03:22:40.778Z,13.35
2022-10-18T03:25:07.410Z,13.33
2022-10-18T03:27:34.069Z,13.35
2022-10-18T03:30:00.928Z,13.36
2022-10-18T03:32:27.277Z,13.33
2022-10-18T03:34:53.634Z,13.32
2022-10-18T03:37:20.006Z,13.33
2022-10-18T03:39:46.330Z,13.27
2022-10-18T03:42:12.715Z,13.27
2022-10-18T03:44:39.071Z,13.27
2022-10-18T03:47:05.441Z,13.22
2022-10-18T03:51:58.068Z,13.19
2022-10-18T03:54:24.443Z,13.18
2022-10-18T03:56:50.947Z,13.17
2022-10-18T03:59:17.693Z,13.19
2022-10-18T04:01:44.280Z,13.13
2022-10-18T04:04:10.913Z,13.11
2022-10-18T04:06:37.241Z,13.10
2022-10-18T04:09:06.529Z,13.10
2022-10-18T04:11:36.450Z,13.09
2022-10-18T04:14:02.915Z,13.04
2022-10-18T04:16:29.408Z,13.00
2022-10-18T04:18:55.830Z,12.97
2022-10-18T04:21:22.340Z,12.98
2022-10-18T04:23:49.634Z,12.98
2022-10-18T04:26:16.678Z,12.96
2022-10-18T04:28:43.881Z,12.93
2022-10-18T04:31:11.407Z,12.84
2022-10-18T04:33:38.641Z,12.84
2022-10-18T04:36:05.543Z,12.83
2022-10-18T04:38:32.029Z,12.82
2022-10-18T04:40:58.601Z,12.85
2022-10-18T04:43:25.092Z,12.78
2022-10-18T04:45:51.486Z,12.77
2022-10-18T04:48:18.210Z,12.74
2022-10-18T04:50:47.476Z,12.73
2022-10-18T04:53:14.042Z,12.72
2022-10-18T04:55:42.893Z,12.73
2022-10-18T04:58:09.529Z,12.75
2022-10-18T05:00:39.962Z,12.75
2022-10-18T05:03:07.308Z,12.74
2022-10-18T05:05:49.995Z,12.74
2022-10-18T05:08:20.673Z,12.72
2022-10-18T05:10:46.999Z,12.69
2022-10-18T05:13:13.462Z,12.70
2022-10-18T05:15:39.839Z,12.68
2022-10-18T05:18:06.187Z,12.72
2022-10-18T05:20:32.609Z,12.77
2022-10-18T05:22:59.035Z,12.76
2022-10-18T05:25:25.648Z,12.76
2022-10-18T05:27:52.125Z,12.78
2022-10-18T05:30:18.683Z,12.77
2022-10-18T05:32:44.991Z,12.77
2022-10-18T05:35:11.358Z,12.78
2022-10-18T05:37:37.690Z,12.75
2022-10-18T05:40:04.566Z,12.71
2022-10-18T05:42:31.162Z,12.71
2022-10-18T05:44:57.711Z,12.72
2022-10-18T05:47:24.183Z,12.73
2022-10-18T05:49:50.621Z,12.73
2022-10-18T05:52:17.617Z,12.72
2022-10-18T05:54:43.979Z,12.72
2022-10-18T05:57:10.314Z,12.70
2022-10-18T05:59:36.651Z,12.68
2022-10-18T06:02:02.986Z,12.62
2022-10-18T06:04:29.364Z,12.59
2022-10-18T06:06:56.174Z,12.61
2022-10-18T06:09:22.634Z,12.61
2022-10-18T06:11:48.986Z,12.56
2022-10-18T06:14:15.409Z,12.51
2022-10-18T06:16:41.769Z,12.50
2022-10-18T06:19:08.112Z,12.52
2022-10-18T06:21:35.014Z,12.48
2022-10-18T06:24:01.419Z,12.39
2022-10-18T06:26:28.789Z,12.36
2022-10-18T06:28:55.430Z,12.35
2022-10-18T06:31:21.882Z,12.37
2022-10-18T06:33:49.180Z,12.39
2022-10-18T06:36:18.864Z,12.38
2022-10-18T06:38:45.319Z,12.37
2022-10-18T06:41:11.759Z,12.31
2022-10-18T06:43:38.220Z,12.28
2022-10-18T06:46:06.829Z,12.24
2022-10-18T06:48:36.770Z,12.25
2022-10-18T06:51:05.829Z,12.27
2022-10-18T06:53:34.391Z,12.27
2022-10-18T06:56:02.183Z,12.22
2022-10-18T06:58:29.721Z,12.22
2022-10-18T07:00:56.764Z,12.28
2022-10-18T07:03:24.085Z,12.28
2022-10-18T07:05:50.569Z,12.25
2022-10-18T07:08:17.695Z,12.23
2022-10-18T07:10:51.979Z,12.31
2022-10-18T07:13:33.974Z,12.30
2022-10-18T07:16:01.557Z,12.34
2022-10-18T07:18:28.364Z,12.36
2022-10-18T07:20:55.213Z,12.38
2022-10-18T07:23:23.707Z,12.42
2022-10-18T07:25:50.683Z,12.43
2022-10-18T07:28:17.022Z,12.41
2022-10-18T07:30:43.698Z,12.42
2022-10-18T07:33:10.104Z,12.47
2022-10-18T07:35:36.559Z,12.46
2022-10-18T07:38:02.905Z,12.43
2022-10-18T07:40:29.225Z,12.45
2022-10-18T07:42:55.652Z,12.47
2022-10-18T07:45:22.172Z,12.50
2022-10-18T07:47:53.699Z,12.53
2022-10-18T07:50:20.243Z,12.54
2022-10-18T07:52:46.596Z,12.58
2022-10-18T07:55:13.115Z,12.60
2022-10-18T07:57:39.878Z,12.69
2022-10-18T08:00:08.753Z,12.80
2022-10-18T08:02:35.427Z,12.89
2022-10-18T08:05:01.768Z,12.99
2022-10-18T08:07:29.375Z,13.11
2022-10-18T08:09:55.784Z,13.25
2022-10-18T08:12:23.037Z,13.37
2022-10-18T08:14:49.372Z,13.45
2022-10-18T08:17:15.860Z,13.53
2022-10-18T08:19:52.842Z,13.62
2022-10-18T08:22:28.545Z,13.73
2022-10-18T08:24:54.907Z,13.81
2022-10-18T08:27:21.296Z,13.83
2022-10-18T08:29:48.051Z,13.94
2022-10-18T08:32:14.598Z,14.04
2022-10-18T08:34:40.966Z,14.13
2022-10-18T08:37:07.281Z,14.22
2022-10-18T08:39:33.636Z,14.36
2022-10-18T08:42:15.261Z,14.48
2022-10-18T08:44:50.961Z,14.57
2022-10-18T08:47:21.617Z,14.66
2022-10-18T08:49:51.115Z,14.76
2022-10-18T08:52:48.828Z,14.95
2022-10-18T08:55:45.040Z,15.08
2022-10-18T08:58:21.635Z,15.04
2022-10-18T09:01:12.609Z,15.01
2022-10-18T09:03:58.596Z,15.10
2022-10-18T09:06:52.891Z,15.25
2022-10-18T09:09:33.392Z,15.41
2022-10-18T09:12:09.042Z,15.46
2022-10-18T09:14:41.500Z,15.57
2022-10-18T09:17:15.692Z,15.68
2022-10-18T09:20:11.951Z,15.84
2022-10-18T09:22:52.982Z,15.89
2022-10-18T09:25:21.488Z,15.91
2022-10-18T09:27:53.285Z,15.99
2022-10-18T09:30:34.819Z,16.12
2022-10-18T09:33:13.246Z,16.16
2022-10-18T09:36:05.061Z,16.11
2022-10-18T09:38:37.815Z,16.15
2022-10-18T09:41:18.516Z,16.24
2022-10-18T09:43:51.410Z,16.28
2022-10-18T09:46:20.401Z,16.25
2022-10-18T09:49:16.419Z,16.29
2022-10-18T09:51:45.371Z,16.36
2022-10-18T09:54:24.442Z,16.43
2022-10-18T09:57:04.444Z,16.50
2022-10-18T09:59:41.830Z,16.48
2022-10-18T10:02:23.896Z,16.55
2022-10-18T10:04:51.701Z,16.57
2022-10-18T10:07:21.399Z,16.68
2022-10-18T10:09:59.429Z,16.74
2022-10-18T10:12:28.037Z,16.74
2022-10-18T10:14:54.495Z,16.74
2022-10-18T10:17:26.248Z,16.81
2022-10-18T10:19:58.848Z,16.79
2022-10-18T10:22:29.075Z,16.76
2022-10-18T10:24:55.687Z,16.71
2022-10-18T10:27:33.065Z,16.69
2022-10-18T10:30:06.835Z,16.73
2022-10-18T10:32:46.842Z,16.87
2022-10-18T10:35:52.704Z,16.98
2022-10-18T10:38:28.033Z,17.01
2022-10-18T10:40:55.475Z,16.98
2022-10-18T10:43:38.734Z,16.92
2022-10-18T10:46:11.774Z,16.96
2022-10-18T10:48:49.281Z,17.01
2022-10-18T10:51:29.461Z,17.02
2022-10-18T10:54:02.921Z,17.01
2022-10-18T10:56:37.214Z,17.12
2022-10-18T10:59:08.691Z,17.20
2022-10-18T11:01:36.399Z,17.23
2022-10-18T11:04:24.321Z,17.32
2022-10-18T11:07:00.844Z,17.26
2022-10-18T11:09:46.356Z,17.21
2022-10-18T11:12:30.839Z,17.21
2022-10-18T11:15:09.922Z,17.26
2022-10-18T11:17:46.352Z,17.29
2022-10-18T11:20:24.780Z,17.30
2022-10-18T11:23:01.059Z,17.38
2022-10-18T11:25:45.938Z,17.48
2022-10-18T11:28:24.321Z,17.45
2022-10-18T11:31:03.557Z,17.39
2022-10-18T11:34:08.784Z,17.41
2022-10-18T11:36:57.903Z,17.46
2022-10-18T11:39:59.218Z,17.42
2022-10-18T11:42:43.736Z,17.36
2022-10-18T11:45:27.831Z,17.40
2022-10-18T11:48:16.847Z,17.43
2022-10-18T11:51:01.362Z,17.40
2022-10-18T11:53:55.863Z,17.44
2022-10-18T11:56:39.020Z,17.46
2022-10-18T11:59:08.795Z,17.48
2022-10-18T12:01:51.611Z,17.51
2022-10-18T12:04:23.244Z,17.49
2022-10-18T12:06:54.541Z,17.53
2022-10-18T12:09:29.775Z,17.51
2022-10-18T12:12:02.683Z,17.52
2022-10-18T12:14:58.172Z,17.52
2022-10-18T12:17:49.921Z,17.48
2022-10-18T12:20:16.745Z,17.45
2022-10-18T12:22:50.083Z,17.50
2022-10-18T12:25:18.074Z,17.52
2022-10-18T12:27:53.061Z,17.58
2022-10-18T12:31:02.926Z,17.58
2022-10-18T12:33:35.967Z,17.59
2022-10-18T12:36:22.964Z,17.63
2022-10-18T12:39:02.702Z,17.64
2022-10-18T12:41:32.442Z,17.59
2022-10-18T12:44:20.965Z,17.57
2022-10-18T12:46:56.291Z,17.48
2022-10-18T12:49:31.708Z,17.44
2022-10-18T12:52:00.835Z,17.41
2022-10-18T12:54:31.680Z,17.43
2022-10-18T12:57:00.166Z,17.41
2022-10-18T12:59:26.776Z,17.38
2022-10-18T13:01:53.251Z,17.31
2022-10-18T13:04:29.203Z,17.30
2022-10-18T13:07:02.999Z,17.26
2022-10-18T13:10:10.800Z,17.27
2022-10-18T13:12:52.103Z,17.28
2022-10-18T13:15:43.627Z,17.24
2022-10-18T13:18:26.721Z,17.16
2022-10-18T13:21:12.768Z,17.12
2022-10-18T13:23:57.822Z,17.06
2022-10-18T13:26:31.837Z,17.06
2022-10-18T13:29:16.585Z,17.07
2022-10-18T13:31:55.433Z,17.09
2022-10-18T13:34:24.905Z,17.04
2022-10-18T13:37:23.958Z,17.02
2022-10-18T13:39:52.097Z,16.97
2022-10-18T13:42:27.563Z,16.99
2022-10-18T13:44:53.932Z,16.97
2022-10-18T13:47:37.332Z,17.01
2022-10-18T13:50:27.935Z,17.01
2022-10-18T13:53:11.670Z,17.00
2022-10-18T13:55:59.824Z,16.99
2022-10-18T13:58:31.283Z,16.97
2022-10-18T14:01:30.176Z,16.91
2022-10-18T14:04:21.711Z,16.87
2022-10-18T14:06:48.723Z,16.80
2022-10-18T14:09:43.750Z,16.79
2022-10-18T14:12:47.680Z,16.79
2022-10-18T14:15:20.869Z,16.73
2022-10-18T14:18:00.083Z,16.75
2022-10-18T14:20:49.477Z,16.69
2022-10-18T14:23:31.294Z,16.73
2022-10-18T14:26:14.955Z,16.72
2022-10-18T14:28:59.137Z,16.63
2022-10-18T14:31:27.019Z,16.61
2022-10-18T14:33:58.043Z,16.56
2022-10-18T14:36:34.681Z,16.56
2022-10-18T14:39:03.574Z,16.52
2022-10-18T14:41:35.418Z,16.47
2022-10-18T14:44:24.508Z,16.50
2022-10-18T14:47:16.308Z,16.45
2022-10-18T14:49:44.786Z,16.42
2022-10-18T14:52:18.160Z,16.42
2022-10-18T14:54:45.097Z,16.34
2022-10-18T14:57:26.662Z,16.33
2022-10-18T14:59:58.027Z,16.29
2022-10-18T15:02:26.220Z,16.30
2022-10-18T15:05:04.790Z,16.31
2022-10-18T15:07:32.587Z,16.26
2022-10-18T15:10:01.116Z,16.24
2022-10-18T15:12:33.903Z,16.19
2022-10-18T15:15:17.155Z,16.17
2022-10-18T15:17:45.083Z,16.13
2022-10-18T15:20:32.419Z,16.17
2022-10-18T15:23:27.874Z,16.17
2022-10-18T15:26:03.824Z,16.13
2022-10-18T15:28:35.975Z,16.05
2022-10-18T15:31:03.387Z,16.01
2022-10-18T15:33:34.418Z,15.99
2022-10-18T15:36:17.487Z,15.98
2022-10-18T15:38:47.495Z,15.93
2022-10-18T15:41:43.420Z,15.93
2022-10-18T15:44:19.839Z,15.86
2022-10-18T15:46:47.677Z,15.83
2022-10-18T15:49:45.026Z,15.86
2022-10-18T15:52:38.590Z,15.76
2022-10-18T15:55:41.935Z,15.75
2022-10-18T15:58:18.563Z,15.66
2022-10-18T16:00:46.506Z,15.64
2022-10-18T16:03:13.877Z,15.60
2022-10-18T16:05:40.727Z,15.59
2022-10-18T16:08:20.604Z,15.60
2022-10-18T16:10:46.954Z,15.57
2022-10-18T16:13:13.289Z,15.55
2022-10-18T16:15:39.809Z,15.50
2022-10-18T16:18:06.149Z,15.44
2022-10-18T16:20:32.484Z,15.40
2022-10-18T16:22:58.856Z,15.40
2022-10-18T16:25:25.424Z,15.38
2022-10-18T16:27:51.826Z,15.38
2022-10-18T16:30:21.001Z,15.36
2022-10-18T16:32:48.902Z,15.31
2022-10-18T16:35:15.593Z,15.24
2022-10-18T16:37:43.194Z,15.23
2022-10-18T16:40:22.849Z,15.23
2022-10-18T16:42:49.352Z,15.16
2022-10-18T16:45:15.900Z,15.09
2022-10-18T16:47:42.625Z,15.08
2022-10-18T16:50:15.118Z,15.12
2022-10-18T16:52:41.733Z,15.08
2022-10-18T16:55:15.373Z,15.03
2022-10-18T16:57:43.218Z,14.99
2022-10-18T17:00:18.972Z,14.97
2022-10-18T17:02:45.471Z,14.92
2022-10-18T17:05:11.932Z,14.89
2022-10-18T17:07:38.710Z,14.80
2022-10-18T17:10:05.761Z,14.78
2022-10-18T17:12:32.582Z,14.81
2022-10-18T17:14:59.287Z,14.78
2022-10-18T17:17:25.639Z,14.75
2022-10-18T17:19:52.047Z,14.72
2022-10-18T17:22:18.429Z,14.67
2022-10-18T17:24:45.005Z,14.62
2022-10-18T17:27:11.572Z,14.58
2022-10-18T17:29:38.020Z,14.51
2022-10-18T17:32:04.676Z,14.52
2022-10-18T17:34:31.156Z,14.46
2022-10-18T17:36:57.825Z,14.35
2022-10-18T17:39:24.530Z,14.34
2022-10-18T17:41:50.992Z,14.27
2022-10-18T17:44:17.431Z,14.20
2022-10-18T17:46:43.965Z,14.12
2022-10-18T17:49:10.591Z,14.05
2022-10-18T17:51:37.269Z,13.98
2022-10-18T17:54:05.845Z,13.96
2022-10-18T17:56:39.514Z,14.00
2022-10-18T17:59:05.946Z,14.01
2022-10-18T18:01:35.467Z,13.97
2022-10-18T18:04:03.600Z,13.81
2022-10-18T18:06:39.593Z,13.77
2022-10-18T18:09:09.162Z,13.75
2022-10-18T18:11:37.958Z,13.72
2022-10-18T18:14:09.998Z,13.71
2022-10-18T18:16:45.357Z,13.70
2022-10-18T18:19:12.406Z,13.59
2022-10-18T18:21:39.901Z,13.57
2022-10-18T18:24:07.179Z,13.53
2022-10-18T18:26:35.209Z,13.53
2022-10-18T18:31:34.404Z,13.49
2022-10-18T18:34:05.040Z,13.46
2022-10-18T18:36:32.514Z,13.45
2022-10-18T18:38:59.418Z,13.37
2022-10-18T18:41:30.187Z,13.36
2022-10-18T18:43:59.301Z,13.31
2022-10-18T18:46:30.585Z,13.30
2022-10-18T18:48:58.162Z,13.18
2022-10-18T18:51:25.224Z,13.17
2022-10-18T18:53:51.726Z,13.13
2022-10-18T18:58:48.517Z,13.18
2022-10-18T19:01:20.781Z,13.16
2022-10-18T19:03:50.836Z,13.08
2022-10-18T19:06:22.454Z,13.01
2022-10-18T19:08:49.724Z,12.95
2022-10-18T19:11:18.746Z,12.96
2022-10-18T19:13:45.609Z,12.98
2022-10-18T19:16:20.756Z,12.94
2022-10-18T19:18:59.646Z,12.88
2022-10-18T19:21:29.726Z,12.82
2022-10-18T19:23:57.902Z,12.75
2022-10-18T19:26:29.283Z,12.76
2022-10-18T19:28:55.747Z,12.75
2022-10-18T19:31:22.986Z,12.69
2022-10-18T19:33:59.393Z,12.62
2022-10-18T19:36:26.671Z,12.53
2022-10-18T19:38:53.266Z,12.55
2022-10-18T19:41:19.960Z,12.52
2022-10-18T19:43:46.748Z,12.51
2022-10-18T19:46:13.102Z,12.46
2022-10-18T19:48:39.475Z,12.35
2022-10-18T19:51:09.355Z,12.32
2022-10-18T19:53:36.284Z,12.30
2022-10-18T19:56:05.353Z,12.28
2022-10-18T19:58:32.636Z,12.31
2022-10-18T20:01:00.295Z,12.31
2022-10-18T20:03:30.348Z,12.23
2022-10-18T20:06:01.125Z,12.15
2022-10-18T20:08:30.874Z,12.12
2022-10-18T20:11:01.863Z,12.12
2022-10-18T20:13:28.599Z,12.11
2022-10-18T20:15:55.067Z,12.05
2022-10-18T20:18:21.619Z,12.06
2022-10-18T20:20:49.177Z,12.01
2022-10-18T20:23:17.086Z,11.97
2022-10-18T20:25:54.868Z,11.97
2022-10-18T20:28:22.627Z,11.91
2022-10-18T20:30:49.021Z,11.83
2022-10-18T20:33:16.107Z,11.73
2022-10-18T20:35:42.701Z,11.73
2022-10-18T20:38:09.192Z,11.70
2022-10-18T20:40:35.646Z,11.68
2022-10-18T20:43:03.808Z,11.62
2022-10-18T20:45:30.361Z,11.64
2022-10-18T20:47:56.753Z,11.63
2022-10-18T20:50:23.128Z,11.56
2022-10-18T20:52:51.259Z,11.54
2022-10-18T20:55:18.817Z,11.50
2022-10-18T20:57:45.169Z,11.48
2022-10-18T21:00:12.882Z,11.40
2022-10-18T21:02:39.290Z,11.37
2022-10-18T21:05:05.949Z,11.37
2022-10-18T21:07:32.508Z,11.35
2022-10-18T21:09:59.082Z,11.27
2022-10-18T21:12:27.570Z,11.27
2022-10-18T21:14:55.383Z,11.20
2022-10-18T21:17:21.803Z,11.27
2022-10-18T21:19:48.259Z,11.21
2022-10-18T21:22:14.604Z,11.21
2022-10-18T21:24:42.418Z,11.19
2022-10-18T21:27:08.965Z,11.18
2022-10-18T21:29:35.312Z,11.20
2022-10-18T21:32:02.728Z,11.19
2022-10-18T21:34:29.090Z,11.22
2022-10-18T21:36:55.535Z,11.20
2022-10-18T21:41:50.715Z,11.06
2022-10-18T21:44:17.663Z,11.03
2022-10-18T21:46:45.146Z,10.98
2022-10-18T21:49:11.743Z,10.92
2022-10-18T21:51:38.724Z,10.89
2022-10-18T21:54:08.637Z,10.90
2022-10-18T21:56:35.939Z,10.87
2022-10-18T21:59:03.511Z,10.82
2022-10-18T22:01:36.361Z,10.82
2022-10-18T22:04:05.531Z,10.70
2022-10-18T22:09:08.329Z,10.71
2022-10-18T22:11:38.807Z,10.68
2022-10-18T22:14:05.348Z,10.65
2022-10-18T22:16:31.710Z,10.67
2022-10-18T22:19:00.761Z,10.65
2022-10-18T22:21:28.235Z,10.64
2022-10-18T22:23:58.905Z,10.61
2022-10-18T22:26:25.235Z,10.57
2022-10-18T22:28:57.259Z,10.53
2022-10-18T22:31:25.905Z,10.48
2022-10-18T22:33:58.287Z,10.45
2022-10-18T22:36:25.791Z,10.46
2022-10-18T22:38:52.420Z,10.44
2022-10-18T22:41:19.114Z,10.33
2022-10-18T22:43:47.592Z,10.31
2022-10-18T22:46:14.996Z,10.32
2022-10-18T22:48:42.181Z,10.31
2022-10-18T22:51:08.737Z,10.28
2022-10-18T22:53:36.291Z,10.24
2022-10-18T22:56:03.781Z,10.17
2022-10-18T22:58:30.580Z,10.14
2022-10-18T23:01:03.100Z,10.19
2022-10-18T23:03:29.540Z,10.18
2022-10-18T23:05:56.259Z,10.14
2022-10-18T23:08:22.820Z,10.15
2022-10-18T23:10:54.052Z,10.13
2022-10-18T23:13:20.556Z,10.12
2022-10-18T23:15:46.899Z,10.03
2022-10-18T23:18:13.246Z,10.00
2022-10-18T23:20:39.606Z,9.95
2022-10-18T23:23:06.086Z,9.90
2022-10-18T23:25:36.420Z,9.86
2022-10-18T23:28:03.582Z,9.84
2022-10-18T23:30:30.629Z,9.81
2022-10-18T23:32:57.027Z,9.78
2022-10-18T23:35:23.669Z,9.82
2022-10-18T23:37:51.206Z,9.83
2022-10-18T23:40:17.578Z,9.76
2022-10-18T23:42:43.920Z,9.79
2022-10-18T23:45:10.545Z,9.70
2022-10-18T23:47:37.004Z,9.68
2022-10-18T23:50:03.811Z,9.65
2022-10-18T23:52:30.140Z,9.63
2022-10-18T23:54:56.509Z,9.52
2022-10-18T23:57:22.931Z,9.45
2022-10-18T23:59:49.437Z,9.45
